createdAt,value
2022-12-19T00:01:26.822Z,97.60
2022-12-19T00:03:58.994Z,97.70
2022-12-19T00:06:29.164Z,97.70
2022-12-19T00:09:00.816Z,97.70
2022-12-19T00:11:31.136Z,97.70
2022-12-19T00:14:00.239Z,98.10
2022-12-19T00:16:30.799Z,97.70
2022-12-19T00:19:01.974Z,97.70
2022-12-19T00:21:35.180Z,97.90
2022-12-19T00:24:06.582Z,97.90
2022-12-19T00:26:42.995Z,97.80
2022-12-19T00:29:14.397Z,97.70
2022-12-19T00:31:43.442Z,97.70
2022-12-19T00:34:11.949Z,97.70
2022-12-19T00:36:41.623Z,97.70
2022-12-19T00:39:11.754Z,98.10
2022-12-19T00:41:43.299Z,97.80
2022-12-19T00:44:14.543Z,97.80
2022-12-19T00:46:47.146Z,97.80
2022-12-19T00:49:21.712Z,97.90
2022-12-19T00:51:50.442Z,97.80
2022-12-19T00:54:19.043Z,97.80
2022-12-19T00:56:49.455Z,97.80
2022-12-19T00:59:18.904Z,97.80
2022-12-19T01:01:58.092Z,97.70
2022-12-19T01:04:29.094Z,97.70
2022-12-19T01:07:02.381Z,97.90
2022-12-19T01:09:33.791Z,97.90
2022-12-19T01:12:24.174Z,97.90
2022-12-19T01:14:58.528Z,97.90
2022-12-19T01:17:43.762Z,97.90
2022-12-19T01:20:14.953Z,98.20
2022-12-19T01:22:43.363Z,97.90
2022-12-19T01:25:15.164Z,97.90
2022-12-19T01:28:38.937Z,98.00
2022-12-19T01:31:07.761Z,98.00
2022-12-19T01:33:37.720Z,97.90
2022-12-19T01:36:08.618Z,98.00
2022-12-19T01:38:38.218Z,98.10
2022-12-19T01:41:06.995Z,98.10
2022-12-19T01:43:58.553Z,98.00
2022-12-19T01:46:32.625Z,98.10
2022-12-19T01:49:03.224Z,98.00
2022-12-19T01:51:38.704Z,98.10
2022-12-19T01:54:11.201Z,98.10
2022-12-19T01:56:44.102Z,98.10
2022-12-19T01:59:18.208Z,98.10
2022-12-19T02:01:51.524Z,98.10
2022-12-19T02:04:25.003Z,98.10
2022-12-19T02:06:59.730Z,98.10
2022-12-19T02:09:34.074Z,98.60
2022-12-19T02:12:02.807Z,98.20
2022-12-19T02:14:36.107Z,98.20
2022-12-19T02:17:14.567Z,98.20
2022-12-19T02:20:34.888Z,98.10
2022-12-19T02:23:41.664Z,98.20
2022-12-19T02:26:40.169Z,98.30
2022-12-19T02:29:55.791Z,98.20
2022-12-19T02:32:34.772Z,98.10
2022-12-19T02:35:18.353Z,98.10
2022-12-19T02:37:51.272Z,98.10
2022-12-19T02:40:28.400Z,98.10
2022-12-19T02:43:02.322Z,98.10
2022-12-19T02:45:36.365Z,98.20
2022-12-19T02:48:09.196Z,98.20
2022-12-19T02:50:42.288Z,98.20
2022-12-19T02:53:15.496Z,98.30
2022-12-19T02:55:53.237Z,98.30
2022-12-19T02:58:38.075Z,98.30
2022-12-19T03:01:18.557Z,98.20
2022-12-19T03:04:02.085Z,98.20
2022-12-19T03:06:40.881Z,98.20
2022-12-19T03:09:19.628Z,98.20
2022-12-19T03:11:52.206Z,98.30
2022-12-19T03:14:23.151Z,98.30
2022-12-19T03:16:54.286Z,98.20
2022-12-19T03:19:24.757Z,98.20
2022-12-19T03:21:53.963Z,98.40
2022-12-19T03:24:22.314Z,98.30
2022-12-19T03:26:57.388Z,98.30
2022-12-19T03:29:31.865Z,98.30
2022-12-19T03:32:05.611Z,98.30
2022-12-19T03:34:41.397Z,98.30
2022-12-19T03:37:16.938Z,98.30
2022-12-19T03:39:49.815Z,98.30
2022-12-19T03:42:37.256Z,98.40
2022-12-19T03:45:08.477Z,98.40
2022-12-19T03:47:41.648Z,98.40
2022-12-19T03:50:12.395Z,98.30
2022-12-19T03:52:47.910Z,98.50
2022-12-19T03:55:22.490Z,98.50
2022-12-19T03:57:57.553Z,98.50
2022-12-19T04:00:27.018Z,98.40
2022-12-19T04:02:58.074Z,98.30
2022-12-19T04:05:29.718Z,98.30
2022-12-19T04:08:02.327Z,98.40
2022-12-19T04:10:31.368Z,98.40
2022-12-19T04:13:03.487Z,98.40
2022-12-19T04:15:38.915Z,98.30
2022-12-19T04:18:11.201Z,98.40
2022-12-19T04:20:47.230Z,98.30
2022-12-19T04:23:21.371Z,98.60
2022-12-19T04:25:53.006Z,98.60
2022-12-19T04:28:26.886Z,98.70
2022-12-19T04:30:55.917Z,98.80
2022-12-19T04:33:24.357Z,98.80
2022-12-19T04:35:54.224Z,98.60
2022-12-19T04:38:22.642Z,98.60
2022-12-19T04:40:51.099Z,98.70
2022-12-19T04:43:19.491Z,98.90
2022-12-19T04:45:50.554Z,98.90
2022-12-19T04:48:22.482Z,98.90
2022-12-19T04:50:50.888Z,98.90
2022-12-19T04:53:20.712Z,98.90
2022-12-19T04:55:49.106Z,98.90
2022-12-19T04:58:21.942Z,98.90
2022-12-19T05:00:50.919Z,98.80
2022-12-19T05:03:19.391Z,98.70
2022-12-19T05:05:47.794Z,98.60
2022-12-19T05:08:16.220Z,98.60
2022-12-19T05:10:45.975Z,98.70
2022-12-19T05:13:14.672Z,98.60
2022-12-19T05:15:43.360Z,98.60
2022-12-19T05:18:11.779Z,98.50
2022-12-19T05:20:40.181Z,98.50
2022-12-19T05:23:16.773Z,98.50
2022-12-19T05:25:47.791Z,98.50
2022-12-19T05:28:17.479Z,99.00
2022-12-19T05:30:51.946Z,99.00
2022-12-19T05:33:20.739Z,98.90
2022-12-19T05:35:49.617Z,98.60
2022-12-19T05:38:17.975Z,98.50
2022-12-19T05:40:47.728Z,98.30
2022-12-19T05:43:16.050Z,98.40
2022-12-19T05:45:44.405Z,98.40
2022-12-19T05:48:13.417Z,98.50
2022-12-19T05:50:41.878Z,98.40
2022-12-19T05:53:11.128Z,98.30
2022-12-19T05:55:39.498Z,98.40
2022-12-19T05:58:09.258Z,98.30
2022-12-19T06:00:38.142Z,98.60
2022-12-19T06:03:06.799Z,98.70
2022-12-19T06:05:39.624Z,98.80
2022-12-19T06:08:08.003Z,99.10
2022-12-19T06:10:36.614Z,98.80
2022-12-19T06:13:05.090Z,98.90
2022-12-19T06:15:34.855Z,98.50
2022-12-19T06:18:03.173Z,98.60
2022-12-19T06:20:31.547Z,98.50
2022-12-19T06:23:00.901Z,98.30
2022-12-19T06:25:29.816Z,99.00
2022-12-19T06:27:58.178Z,98.70
2022-12-19T06:30:26.618Z,98.60
2022-12-19T06:32:56.329Z,98.90
2022-12-19T06:35:25.297Z,98.90
2022-12-19T06:37:57.891Z,99.00
2022-12-19T06:41:05.365Z,99.00
2022-12-19T06:43:33.669Z,98.90
2022-12-19T06:46:02.189Z,99.00
2022-12-19T06:48:32.025Z,98.70
2022-12-19T06:51:00.402Z,99.40
2022-12-19T06:53:29.027Z,98.80
2022-12-19T06:55:59.949Z,98.70
2022-12-19T06:58:28.439Z,99.30
2022-12-19T07:00:57.614Z,99.20
2022-12-19T07:03:32.364Z,99.00
2022-12-19T07:06:00.825Z,99.10
2022-12-19T07:08:30.884Z,99.00
2022-12-19T07:10:59.928Z,99.30
2022-12-19T07:13:28.485Z,99.30
2022-12-19T07:16:02.196Z,99.00
2022-12-19T07:18:35.994Z,99.50
2022-12-19T07:21:06.241Z,99.40
2022-12-19T07:23:35.694Z,99.50
2022-12-19T07:26:04.630Z,99.30
2022-12-19T07:28:34.848Z,99.50
2022-12-19T07:31:03.281Z,99.50
2022-12-19T07:33:33.743Z,99.40
2022-12-19T07:36:02.171Z,99.50
2022-12-19T07:38:30.547Z,99.40
2022-12-19T07:41:02.472Z,99.30
2022-12-19T07:43:30.903Z,99.60
2022-12-19T07:45:59.369Z,99.50
2022-12-19T07:48:28.802Z,99.80
2022-12-19T07:50:58.563Z,99.50
2022-12-19T07:53:26.927Z,99.50
2022-12-19T07:55:55.349Z,99.60
2022-12-19T07:58:23.856Z,99.50
2022-12-19T08:00:57.128Z,99.60
2022-12-19T08:03:26.069Z,99.90
2022-12-19T08:05:54.558Z,99.80
2022-12-19T08:08:24.833Z,99.40
2022-12-19T08:10:53.243Z,99.70
2022-12-19T08:13:21.601Z,99.60
2022-12-19T08:15:50.122Z,99.70
2022-12-19T08:18:18.439Z,99.70
2022-12-19T08:20:47.702Z,99.90
2022-12-19T08:23:16.044Z,99.70
2022-12-19T08:25:45.772Z,99.70
2022-12-19T08:28:14.121Z,99.70
2022-12-19T08:30:42.977Z,99.70
2022-12-19T08:33:18.686Z,99.90
2022-12-19T08:35:47.061Z,99.80
2022-12-19T08:38:15.396Z,99.80
2022-12-19T08:40:47.559Z,99.90
2022-12-19T08:43:16.064Z,99.90
2022-12-19T08:45:45.649Z,99.80
2022-12-19T08:48:13.997Z,99.70
2022-12-19T08:50:42.340Z,99.70
2022-12-19T08:53:10.674Z,99.90
2022-12-19T08:55:39.027Z,99.80
2022-12-19T08:58:08.728Z,99.80
2022-12-19T09:00:37.072Z,99.80
2022-12-19T09:03:05.992Z,99.90
2022-12-19T09:06:01.002Z,99.90
2022-12-19T09:08:24.588Z,99.90
2022-12-19T09:10:58.803Z,99.90
2022-12-19T09:13:29.322Z,99.90
2022-12-19T09:16:02.768Z,99.90
2022-12-19T09:18:32.613Z,99.90
2022-12-19T09:21:01.532Z,99.90
2022-12-19T09:23:31.884Z,99.90
2022-12-19T09:26:05.115Z,99.90
2022-12-19T09:28:35.157Z,99.90
2022-12-19T09:31:06.941Z,99.90
2022-12-19T09:33:43.166Z,99.90
2022-12-19T09:36:15.521Z,99.90
2022-12-19T09:38:44.768Z,99.90
2022-12-19T09:42:01.531Z,99.90
2022-12-19T09:44:50.080Z,99.90
2022-12-19T09:47:21.639Z,99.90
2022-12-19T09:49:50.545Z,99.90
2022-12-19T09:52:27.771Z,99.90
2022-12-19T09:55:05.181Z,99.90
2022-12-19T09:57:41.917Z,99.90
2022-12-19T10:00:17.235Z,99.90
2022-12-19T10:02:55.448Z,99.90
2022-12-19T10:05:36.550Z,99.90
2022-12-19T10:08:22.902Z,99.90
2022-12-19T10:12:39.194Z,99.90
2022-12-19T10:14:15.456Z,99.90
2022-12-19T10:17:23.023Z,99.90
2022-12-19T10:20:05.054Z,99.90
2022-12-19T10:22:44.610Z,99.90
2022-12-19T10:25:30.315Z,99.90
2022-12-19T10:28:09.299Z,99.90
2022-12-19T10:30:45.210Z,99.90
2022-12-19T10:33:53.324Z,99.90
2022-12-19T10:36:36.478Z,99.90
2022-12-19T10:39:24.988Z,99.90
2022-12-19T10:41:58.663Z,99.90
2022-12-19T10:44:31.206Z,99.90
2022-12-19T10:46:59.572Z,99.90
2022-12-19T10:49:30.884Z,99.90
2022-12-19T10:52:01.633Z,99.90
2022-12-19T10:54:41.614Z,99.90
2022-12-19T10:57:25.635Z,99.90
2022-12-19T11:00:03.027Z,99.90
2022-12-19T11:02:44.598Z,99.90
2022-12-19T11:05:30.272Z,99.90
2022-12-19T11:08:05.633Z,99.90
2022-12-19T11:12:31.058Z,99.90
2022-12-19T11:18:27.784Z,99.90
2022-12-19T11:21:38.018Z,99.90
2022-12-19T11:29:25.720Z,99.90
2022-12-19T11:29:37.685Z,99.90
2022-12-19T11:29:42.537Z,99.90
2022-12-19T11:30:43.751Z,99.90
2022-12-19T11:34:06.922Z,99.90
2022-12-19T11:36:42.920Z,99.90
2022-12-19T11:39:21.545Z,99.90
2022-12-19T11:42:01.549Z,99.90
2022-12-19T11:44:35.379Z,99.90
2022-12-19T11:47:16.438Z,99.90
2022-12-19T11:49:52.355Z,99.90
2022-12-19T11:53:03.404Z,99.90
2022-12-19T11:55:33.212Z,99.90
2022-12-19T11:58:02.264Z,99.90
2022-12-19T12:00:31.693Z,99.90
2022-12-19T12:03:31.594Z,99.90
2022-12-19T12:05:59.999Z,99.90
2022-12-19T12:10:51.130Z,99.90
2022-12-19T12:19:05.794Z,99.90
2022-12-19T12:23:19.940Z,99.90
2022-12-19T12:30:49.331Z,99.90
2022-12-19T12:31:13.059Z,99.90
2022-12-19T12:31:43.272Z,99.90
2022-12-19T12:31:43.660Z,99.90
2022-12-19T12:32:06.312Z,99.90
2022-12-19T12:36:00.034Z,99.90
2022-12-19T12:39:05.607Z,99.90
2022-12-19T12:42:05.449Z,99.90
2022-12-19T12:44:44.767Z,99.90
2022-12-19T12:47:20.501Z,99.90
2022-12-19T12:49:54.409Z,99.90
2022-12-19T12:52:31.385Z,99.90
2022-12-19T12:55:00.352Z,99.90
2022-12-19T12:57:38.571Z,99.90
2022-12-19T13:00:22.925Z,99.90
2022-12-19T13:02:59.794Z,99.90
2022-12-19T13:05:40.547Z,99.90
2022-12-19T13:08:33.209Z,99.90
2022-12-19T13:11:04.454Z,99.90
2022-12-19T13:13:53.314Z,99.90
2022-12-19T13:16:53.110Z,99.90
2022-12-19T13:19:28.849Z,99.90
2022-12-19T13:22:19.406Z,99.90
2022-12-19T13:24:51.180Z,99.90
2022-12-19T13:27:41.332Z,99.90
2022-12-19T13:30:20.188Z,99.90
2022-12-19T13:33:10.520Z,99.90
2022-12-19T13:37:09.890Z,99.90
2022-12-19T13:39:47.904Z,99.90
2022-12-19T13:41:49.594Z,99.90
2022-12-19T13:44:21.270Z,99.90
2022-12-19T13:46:50.077Z,99.90
2022-12-19T13:49:27.116Z,99.90
2022-12-19T13:51:59.415Z,99.90
2022-12-19T13:57:40.458Z,99.90
2022-12-19T14:00:14.730Z,99.90
2022-12-19T14:02:51.899Z,99.90
2022-12-19T14:05:53.298Z,99.90
2022-12-19T14:08:23.294Z,99.90
2022-12-19T14:11:35.466Z,99.90
2022-12-19T14:14:10.206Z,99.90
2022-12-19T14:16:45.784Z,99.90
2022-12-19T14:19:23.943Z,99.90
2022-12-19T14:22:04.564Z,99.90
2022-12-19T14:24:40.776Z,99.90
2022-12-19T14:28:24.463Z,99.90
2022-12-19T14:30:30.207Z,99.90
2022-12-19T14:33:44.636Z,99.90
2022-12-19T14:36:11.255Z,99.90
2022-12-19T14:39:25.722Z,99.90
2022-12-19T14:42:08.060Z,99.90
2022-12-19T14:52:25.090Z,99.90
2022-12-19T14:52:25.090Z,99.90
2022-12-19T14:54:15.012Z,99.90
2022-12-19T14:54:51.527Z,99.90
2022-12-19T14:56:43.749Z,99.90
2022-12-19T14:59:06.582Z,99.90
2022-12-19T15:01:39.391Z,99.90
2022-12-19T15:04:47.833Z,99.90
2022-12-19T15:07:12.149Z,99.90
2022-12-19T15:11:00.712Z,99.90
2022-12-19T15:14:48.856Z,99.90
2022-12-19T15:16:07.871Z,99.90
2022-12-19T15:18:42.907Z,99.90
2022-12-19T15:21:13.782Z,99.90
2022-12-19T15:23:42.613Z,99.90
2022-12-19T15:26:16.785Z,99.90
2022-12-19T15:28:50.853Z,99.90
2022-12-19T15:31:32.239Z,99.90
2022-12-19T15:34:34.320Z,99.90
2022-12-19T15:36:50.040Z,99.90
2022-12-19T15:39:18.827Z,99.90
2022-12-19T15:41:49.525Z,99.90
2022-12-19T15:44:23.474Z,99.90
2022-12-19T15:46:55.405Z,99.90
2022-12-19T15:49:24.172Z,99.90
2022-12-19T15:51:52.945Z,99.90
2022-12-19T15:54:47.996Z,99.90
2022-12-19T15:57:20.096Z,99.90
2022-12-19T15:59:50.255Z,99.90
2022-12-19T16:02:21.993Z,99.90
2022-12-19T16:04:56.948Z,99.90
2022-12-19T16:07:30.880Z,99.90
2022-12-19T16:09:59.365Z,99.90
2022-12-19T16:12:37.167Z,99.90
2022-12-19T16:15:15.468Z,99.90
2022-12-19T16:17:44.287Z,99.90
2022-12-19T16:20:19.904Z,99.90
2022-12-19T16:22:48.557Z,99.90
2022-12-19T16:25:18.027Z,99.90
2022-12-19T16:27:54.240Z,99.90
2022-12-19T16:30:31.311Z,99.90
2022-12-19T16:33:00.612Z,99.90
2022-12-19T16:38:20.163Z,99.90
2022-12-19T16:40:49.444Z,99.90
2022-12-19T16:43:26.824Z,99.90
2022-12-19T16:46:00.819Z,99.90
2022-12-19T16:48:31.363Z,99.90
2022-12-19T16:51:00.261Z,99.90
2022-12-19T16:53:29.295Z,99.90
2022-12-19T16:55:58.703Z,99.90
2022-12-19T16:58:29.190Z,99.90
2022-12-19T17:01:02.063Z,99.90
2022-12-19T17:03:36.149Z,99.90
2022-12-19T17:06:05.269Z,99.90
2022-12-19T17:08:33.866Z,99.90
2022-12-19T17:11:02.257Z,99.90
2022-12-19T17:13:30.736Z,99.90
2022-12-19T17:16:05.754Z,99.90
2022-12-19T17:18:40.925Z,99.90
2022-12-19T17:21:17.777Z,99.90
2022-12-19T17:23:48.764Z,99.90
2022-12-19T17:26:18.586Z,99.90
2022-12-19T17:28:48.437Z,99.90
2022-12-19T17:31:25.636Z,99.90
2022-12-19T17:33:58.269Z,99.90
2022-12-19T17:36:36.648Z,99.90
2022-12-19T17:39:07.168Z,99.90
2022-12-19T17:41:35.569Z,99.90
2022-12-19T17:44:04.114Z,99.90
2022-12-19T17:46:34.622Z,99.90
2022-12-19T17:49:03.058Z,99.90
2022-12-19T17:51:31.435Z,99.90
2022-12-19T17:53:59.883Z,99.90
2022-12-19T17:56:29.679Z,99.90
2022-12-19T17:58:58.158Z,99.90
2022-12-19T18:01:27.523Z,99.90
2022-12-19T18:03:58.682Z,99.90
2022-12-19T18:06:28.003Z,99.90
2022-12-19T18:08:56.575Z,99.90
2022-12-19T18:11:27.180Z,99.90
2022-12-19T18:13:56.185Z,99.90
2022-12-19T18:16:31.354Z,99.90
2022-12-19T18:19:03.232Z,99.90
2022-12-19T18:21:31.669Z,99.90
2022-12-19T18:24:00.353Z,99.90
2022-12-19T18:26:29.464Z,99.90
2022-12-19T18:28:59.753Z,99.90
2022-12-19T18:31:28.189Z,99.90
2022-12-19T18:34:07.073Z,99.90
2022-12-19T18:36:41.601Z,99.90
2022-12-19T18:39:21.031Z,99.90
2022-12-19T18:41:51.151Z,99.90
2022-12-19T18:44:19.875Z,99.90
2022-12-19T18:46:56.189Z,99.90
2022-12-19T18:49:24.611Z,99.90
2022-12-19T18:51:56.698Z,99.90
2022-12-19T18:54:25.338Z,99.90
2022-12-19T18:56:53.694Z,99.90
2022-12-19T18:59:34.820Z,99.90
2022-12-19T19:02:16.620Z,99.90
2022-12-19T19:04:45.172Z,99.90
2022-12-19T19:07:18.034Z,99.90
2022-12-19T19:09:46.481Z,99.90
2022-12-19T19:12:33.537Z,99.90
2022-12-19T19:15:02.401Z,99.90
2022-12-19T19:17:31.864Z,99.90
2022-12-19T19:20:00.623Z,99.90
2022-12-19T19:22:36.313Z,99.90
2022-12-19T19:25:05.591Z,99.90
2022-12-19T19:27:34.075Z,99.90
2022-12-19T19:30:04.538Z,99.90
2022-12-19T19:32:33.840Z,99.90
2022-12-19T19:35:04.004Z,99.90
2022-12-19T19:37:34.466Z,99.90
2022-12-19T19:40:02.844Z,99.90
2022-12-19T19:42:31.493Z,99.90
2022-12-19T19:44:59.907Z,99.90
2022-12-19T19:47:31.667Z,99.90
2022-12-19T19:50:00.409Z,99.90
2022-12-19T19:52:28.818Z,99.90
2022-12-19T19:54:58.723Z,99.90
2022-12-19T19:57:27.235Z,99.90
2022-12-19T19:59:55.664Z,99.90
2022-12-19T20:02:24.341Z,99.90
2022-12-19T20:04:52.924Z,99.90
2022-12-19T20:07:23.291Z,99.90
2022-12-19T20:09:52.233Z,99.90
2022-12-19T20:12:22.183Z,99.90
2022-12-19T20:14:50.526Z,99.90
2022-12-19T20:17:18.919Z,99.90
2022-12-19T20:19:47.364Z,99.90
2022-12-19T20:22:15.956Z,99.90
2022-12-19T20:24:44.446Z,99.90
2022-12-19T20:27:15.360Z,99.90
2022-12-19T20:29:45.299Z,99.90
2022-12-19T20:32:14.769Z,99.90
2022-12-19T20:34:43.307Z,99.90
2022-12-19T20:37:11.775Z,99.90
2022-12-19T20:39:40.197Z,99.90
2022-12-19T20:42:10.391Z,99.90
2022-12-19T20:44:38.880Z,99.90
2022-12-19T20:47:08.742Z,99.90
2022-12-19T20:49:37.148Z,99.90
2022-12-19T20:52:05.706Z,99.90
2022-12-19T20:54:34.121Z,99.90
2022-12-19T20:57:02.623Z,99.90
2022-12-19T20:59:31.056Z,99.90
2022-12-19T21:02:01.200Z,99.90
2022-12-19T21:04:31.914Z,99.90
2022-12-19T21:07:00.416Z,99.90
2022-12-19T21:09:28.871Z,99.90
2022-12-19T21:11:57.246Z,99.90
2022-12-19T21:14:25.642Z,99.90
2022-12-19T21:16:54.207Z,99.90
2022-12-19T21:19:22.584Z,99.90
2022-12-19T21:21:52.400Z,99.90
2022-12-19T21:24:23.893Z,99.90
2022-12-19T21:26:57.689Z,99.90
2022-12-19T21:29:26.659Z,99.90
2022-12-19T21:31:55.093Z,99.90
2022-12-19T21:34:23.750Z,99.90
2022-12-19T21:36:53.500Z,99.90
2022-12-19T21:39:25.468Z,99.90
2022-12-19T21:41:53.997Z,99.90
2022-12-19T21:44:22.381Z,99.90
2022-12-19T21:46:50.928Z,99.90
2022-12-19T21:49:19.418Z,99.90
2022-12-19T21:51:47.851Z,99.90
2022-12-19T21:54:17.657Z,99.90
2022-12-19T21:56:49.379Z,99.90
2022-12-19T21:59:18.738Z,99.90
2022-12-19T22:01:47.497Z,99.90
2022-12-19T22:04:22.036Z,99.90
2022-12-19T22:06:52.274Z,99.90
2022-12-19T22:09:26.430Z,99.90
2022-12-19T22:11:54.896Z,99.90
2022-12-19T22:14:23.292Z,99.90
2022-12-19T22:16:53.901Z,99.90
2022-12-19T22:19:22.619Z,99.90
2022-12-19T22:21:51.051Z,99.90
2022-12-19T22:24:20.227Z,99.90
2022-12-19T22:26:50.042Z,99.90
2022-12-19T22:29:18.744Z,99.90
2022-12-19T22:31:47.985Z,99.90
2022-12-19T22:34:19.407Z,99.90
2022-12-19T22:36:48.872Z,99.90
2022-12-19T22:39:20.854Z,99.90
2022-12-19T22:41:51.162Z,99.90
2022-12-19T22:44:22.524Z,99.90
2022-12-19T22:46:52.175Z,99.90
2022-12-19T22:49:20.724Z,99.90
2022-12-19T22:51:49.306Z,99.90
2022-12-19T22:54:17.723Z,99.90
2022-12-19T22:56:46.125Z,99.90
2022-12-19T22:59:15.815Z,99.90
2022-12-19T23:01:45.279Z,99.90
2022-12-19T23:04:16.551Z,99.90
2022-12-19T23:06:45.755Z,99.90
2022-12-19T23:09:17.097Z,99.90
2022-12-19T23:11:49.559Z,99.90
2022-12-19T23:14:21.251Z,99.90
2022-12-19T23:16:50.232Z,99.90
2022-12-19T23:19:19.629Z,99.90
2022-12-19T23:21:48.246Z,99.90
2022-12-19T23:24:16.718Z,99.90
2022-12-19T23:26:45.186Z,99.90
2022-12-19T23:29:15.696Z,99.90
2022-12-19T23:31:47.459Z,99.90
2022-12-19T23:34:16.695Z,99.90
2022-12-19T23:37:10.123Z,99.90
2022-12-19T23:39:33.790Z,99.90
2022-12-19T23:42:02.205Z,99.90
2022-12-19T23:44:30.894Z,99.90
2022-12-19T23:47:03.563Z,99.90
2022-12-19T23:49:33.174Z,99.90
2022-12-19T23:52:01.721Z,99.90
2022-12-19T23:54:30.122Z,99.90
2022-12-19T23:56:58.492Z,99.90
2022-12-19T23:59:26.871Z,99.90
